Data for 12/03/2007

Time Sea-Level Adjusted Pressure Absolute Pressure Temperature Relative Humidity Dew Point   
(mb) (inHg) (mb) (inHg) (C) (F) (%) (C) (F)
00:05 1017 30.03 847 25.01 3.3 37.9 46 -7.4 18.7
00:10 1018 30.06 847 25.01 3.4 38.2 45 -7.4 18.6
00:15 1018 30.06 847 25.01 3.5 38.3 45 -7.4 18.7
00:20 1017 30.03 847 25.01 3.5 38.3 45 -7.3 18.9
00:25 1017 30.03 847 25.01 3.4 38.1 46 -7 19.3
00:30 1017 30.03 847 25.01 3.4 38.1 45 -7.3 18.8
00:35 1017 30.03 847 25.01 3.8 38.9 43 -7.6 18.3
00:40 1017 30.03 847 25.01 4.2 39.6 43 -7.4 18.6
00:45 1017 30.03 847 25.01 4.2 39.6 44 -6.9 19.6
00:50 1017 30.03 847 25.01 4 39.1 44 -7.1 19.1
00:55 1017 30.03 847 25.01 3.9 38.9 44 -7.2 19.1
01:00 1018 30.06 847 25.01 3.8 38.8 45 -7.1 19.3
01:05 1018 30.06 847 25.01 3.8 38.8 45 -7 19.4
01:10 1018 30.06 847 25.01 3.7 38.7 47 -6.5 20.3
01:15 1018 30.06 847 25.01 3.4 38.2 46 -7 19.4
01:20 1018 30.06 847 25.01 3.6 38.6 47 -6.6 20.2
01:25 1018 30.06 847 25.01 3.5 38.2 48 -6.4 20.4
01:30 1018 30.06 847 25.01 3.3 38 49 -6.3 20.6
01:35 1018 30.06 847 25.01 3.3 38 48 -6.7 19.9
01:40 1018 30.06 847 25.01 3.3 38 49 -6.3 20.7
01:45 1018 30.06 847 25.01 3.3 37.9 48 -6.6 20.1
01:50 1018 30.06 847 25.01 3.2 37.8 47 -6.9 19.5
01:55 1018 30.06 847 25.01 3.4 38.2 49 -6.4 20.5
02:00 1018 30.06 847 25.01 3.2 37.8 48 -6.6 20.1
02:05 1018 30.06 847 25.01 3.5 38.2 46 -7 19.4
02:10 1018 30.06 847 25.01 3.8 38.8 46 -6.8 19.8
02:15 1018 30.06 847 25.01 3.7 38.7 46 -6.8 19.8
02:20 1018 30.06 847 25.01 4 39.1 46 -6.6 20.1
02:25 1018 30.06 847 25.01 3.7 38.6 49 -6.1 21
02:30 1018 30.06 847 25.01 3.5 38.3 50 -6 21.2
02:35 1018 30.06 847 25.01 3.7 38.6 47 -6.7 20
02:40 1018 30.06 847 25.01 4.2 39.5 45 -6.6 20
02:45 1018 30.06 847 25.01 4.6 40.2 45 -6.3 20.7
02:50 1018 30.06 847 25.01 4.6 40.2 45 -6.3 20.7
02:55 1018 30.06 847 25.01 4.7 40.5 45 -6.3 20.6
03:00 1018 30.06 847 25.01 4.8 40.6 46 -6 21.2
03:05 1018 30.06 847 25.01 4.5 40.1 46 -6.1 21
03:10 1018 30.06 847 25.01 4.5 40.1 46 -6.1 21
03:15 1018 30.06 847 25.01 4.6 40.2 46 -5.9 21.3
03:20 1018 30.06 847 25.01 4.6 40.2 47 -5.9 21.4
03:25 1018 30.06 847 25.01 4.6 40.3 47 -5.8 21.6
03:30 1018 30.06 847 25.01 4.7 40.5 46 -5.8 21.5
03:35 1018 30.06 847 25.01 4.8 40.6 47 -5.6 21.9
03:40 1018 30.06 847 25.01 4.7 40.5 47 -5.7 21.7
03:45 1018 30.06 847 25.01 4.8 40.6 48 -5.4 22.2
03:50 1018 30.06 847 25.01 4.7 40.4 48 -5.4 22.3
03:55 1018 30.06 847 25.01 4.8 40.6 48 -5.4 22.3
04:00 1018 30.06 847 25.01 4.8 40.7 48 -5.4 22.4
04:05 1018 30.06 847 25.01 4.8 40.7 48 -5.3 22.4
04:10 1017 30.03 847 25.01 4.7 40.4 49 -5.1 22.8
04:15 1017 30.03 847 25.01 4.6 40.2 49 -5.2 22.7
04:20 1017 30.03 847 25.01 4.6 40.2 49 -5.1 22.8
04:25 1018 30.06 847 25.01 4.6 40.2 49 -5.2 22.7
04:30 1018 30.06 847 25.01 4.9 40.8 48 -5.3 22.4
04:35 1018 30.06 847 25.01 5.1 41.2 48 -5.1 22.8
04:40 1018 30.06 847 25.01 5.5 42 46 -5.3 22.5
04:45 1018 30.06 847 25.01 5.6 42 47 -5 23
04:50 1018 30.06 847 25.01 5.6 42.1 47 -4.9 23.2
04:55 1018 30.06 847 25.01 5.5 41.9 48 -4.6 23.7
05:00 1018 30.06 847 25.01 5.8 42.4 47 -4.8 23.3
05:05 1018 30.06 847 25.01 6.1 42.9 46 -4.6 23.7
05:10 1018 30.06 847 25.01 6 42.9 47 -4.3 24.2
05:15 1018 30.06 847 25.01 5.9 42.7 48 -4.3 24.3
05:20 1018 30.06 847 25.01 5.8 42.4 49 -4.1 24.6
05:25 1018 30.06 847 25.01 5.7 42.2 50 -3.9 25
05:30 1018 30.06 847 25.01 5.6 42 51 -3.7 25.4
05:35 1018 30.06 847 25.01 5.6 42 50 -4 24.9
05:40 1018 30.06 847 25.01 5.7 42.3 50 -3.9 24.9
05:45 1018 30.06 847 25.01 5.7 42.2 51 -3.8 25.2
05:50 1018 30.06 847 25.01 5.5 41.9 52 -3.7 25.4
05:55 1018 30.06 847 25.01 5.5 41.9 52 -3.5 25.6
06:00 1018 30.06 847 25.01 5.5 41.9 53 -3.3 26
06:05 1018 30.06 847 25.01 5.4 41.7 55 -2.9 26.7
06:10 1018 30.06 847 25.01 5.2 41.4 57 -2.5 27.5
06:15 1018 30.06 848 25.04 5 41.1 57 -2.8 27
06:20 1018 30.06 848 25.04 5.1 41.1 58 -2.6 27.4
06:25 1018 30.06 848 25.04 5 40.9 59 -2.5 27.5
06:30 1018 30.06 848 25.04 5 41 59 -2.4 27.6
06:35 1018 30.06 848 25.04 5.1 41.1 59 -2.4 27.7
06:40 1019 30.09 848 25.04 5.1 41.2 59 -2.3 27.8
06:45 1019 30.09 848 25.04 5.2 41.3 59 -2.2 28.1
06:50 1019 30.09 848 25.04 5.1 41.2 60 -2 28.3
06:55 1019 30.09 848 25.04 4.9 40.7 60 -2.2 28.1
07:00 1019 30.09 848 25.04 4.6 40.3 60 -2.4 27.6
07:05 1019 30.09 848 25.04 4.7 40.4 60 -2.4 27.6
07:10 1019 30.09 849 25.07 4.7 40.4 60 -2.4 27.7
07:15 1019 30.09 849 25.07 4.8 40.6 59 -2.6 27.3
07:20 1019 30.09 849 25.07 4.9 40.9 59 -2.4 27.7
07:25 1019 30.09 849 25.07 4.9 40.8 59 -2.4 27.6
07:30 1019 30.09 849 25.07 4.9 40.8 60 -2.2 28.1
07:35 1020 30.12 849 25.07 4.8 40.7 61 -2 28.4
07:40 1020 30.12 849 25.07 4.8 40.6 62 -1.8 28.8
07:45 1019 30.09 849 25.07 4.7 40.5 62 -1.8 28.7
07:50 1020 30.12 849 25.07 4.7 40.5 62 -1.9 28.6
07:55 1020 30.12 849 25.07 4.7 40.5 63 -1.8 28.8
08:00 1020 30.12 849 25.07 4.7 40.5 62 -1.9 28.7
08:05 1020 30.12 849 25.07 4.9 40.8 61 -1.9 28.6
08:10 1020 30.12 849 25.07 5 41 62 -1.8 28.8
08:15 1020 30.12 849 25.07 5 41.1 61 -1.8 28.7
08:20 1020 30.12 849 25.07 5.1 41.1 61 -1.7 28.9
08:25 1020 30.12 849 25.07 5 41 62 -1.7 29
08:30 1020 30.12 849 25.07 5 41 62 -1.7 28.9
08:35 1020 30.12 849 25.07 5.1 41.2 62 -1.5 29.2
08:40 1020 30.12 849 25.07 5.1 41.3 62 -1.6 29.2
08:45 1020 30.12 849 25.07 5.1 41.2 62 -1.6 29.1
08:50 1020 30.12 849 25.07 5.2 41.3 62 -1.5 29.3
08:55 1020 30.12 849 25.07 5.2 41.3 63 -1.4 29.5
09:00 1020 30.12 849 25.07 5 41 63 -1.4 29.5
09:05 1020 30.12 850 25.1 4.8 40.6 64 -1.5 29.3
09:10 1020 30.12 850 25.1 4.7 40.4 65 -1.4 29.5
09:15 1020 30.12 849 25.07 4.6 40.3 65 -1.4 29.6
09:20 1020 30.12 849 25.07 4.5 40 66 -1.3 29.7
09:25 1020 30.12 850 25.1 4.2 39.5 68 -1.2 29.8
09:30 1020 30.12 850 25.1 3.9 39.1 70 -1.1 30
09:35 1020 30.12 850 25.1 3.8 38.8 70 -1.1 30
09:40 1020 30.12 850 25.1 3.7 38.6 70 -1.2 29.8
09:45 1020 30.12 850 25.1 3.7 38.6 70 -1.2 29.9
09:50 1020 30.12 850 25.1 3.6 38.5 71 -1.1 29.9
09:55 1021 30.15 850 25.1 3.6 38.5 71 -1.1 30
10:00 1021 30.15 850 25.1 3.6 38.4 72 -1.1 30.1
10:05 1020 30.12 850 25.1 3.5 38.3 73 -1 30.2
10:10 1020 30.12 850 25.1 3.4 38 73 -1.1 30.1
10:15 1021 30.15 850 25.1 3.4 38 72 -1.2 29.9
10:20 1021 30.15 850 25.1 3.4 38.2 72 -1.2 29.8
10:25 1021 30.15 850 25.1 3.6 38.6 70 -1.3 29.7
10:30 1021 30.15 850 25.1 4 39.3 67 -1.5 29.3
10:35 1021 30.15 850 25.1 4.6 40.3 66 -1.1 30
10:40 1021 30.15 850 25.1 5 41.1 65 -1.1 30.1
10:45 1021 30.15 850 25.1 5.3 41.6 63 -1.1 30
10:50 1021 30.15 850 25.1 5.6 42.1 61 -1.2 29.8
10:55 1021 30.15 850 25.1 5.9 42.6 61 -1.1 29.9
11:00 1021 30.15 850 25.1 6 42.8 61 -1 30.1
11:05 1021 30.15 850 25.1 5.8 42.5 61 -1 30.2
11:10 1021 30.15 850 25.1 5.8 42.4 61 -1.1 30
11:15 1021 30.15 850 25.1 5.8 42.4 62 -0.9 30.4
11:20 1021 30.15 850 25.1 5.5 42 64 -0.7 30.7
11:25 1021 30.15 850 25.1 5.5 41.9 63 -0.9 30.3
11:30 1021 30.15 850 25.1 5.5 41.9 64 -0.8 30.5
11:35 1021 30.15 850 25.1 5.6 42.1 63 -0.9 30.5
11:40 1021 30.15 850 25.1 5.7 42.3 63 -0.7 30.7
11:45 1021 30.15 850 25.1 5.7 42.3 62 -0.9 30.4
11:50 1021 30.15 850 25.1 5.9 42.7 60 -1.1 30
11:55 1021 30.15 850 25.1 6 42.8 60 -1.2 29.8
12:00 1021 30.15 850 25.1 6 42.9 61 -0.9 30.3
12:05 1021 30.15 850 25.1 6.1 42.9 60 -1.1 30.1
12:10 1021 30.15 850 25.1 6.3 43.3 59 -1.1 30.1
12:15 1021 30.15 850 25.1 6.4 43.6 59 -0.9 30.4
12:20 1021 30.15 850 25.1 6.5 43.7 59 -0.8 30.5
12:25 1021 30.15 850 25.1 6.6 43.8 59 -0.8 30.5
12:30 1021 30.15 850 25.1 6.6 44 59 -0.7 30.7
12:35 1021 30.15 850 25.1 6.5 43.6 60 -0.6 30.9
12:40 1021 30.15 850 25.1 6.3 43.3 61 -0.6 30.9
12:45 1021 30.15 850 25.1 6.5 43.7 58 -1.2 29.9
12:50 1021 30.15 850 25.1 6.7 44 57 -1.3 29.7
12:55 1021 30.15 850 25.1 6.7 44.1 57 -1.1 30.1
13:00 1021 30.15 850 25.1 6.7 44 57 -1.3 29.7
13:05 1021 30.15 850 25.1 6.7 44.1 57 -1.3 29.7
13:10 1021 30.15 850 25.1 6.8 44.2 56 -1.3 29.7
13:15 1021 30.15 850 25.1 6.8 44.2 56 -1.4 29.5
13:20 1021 30.15 850 25.1 6.9 44.4 55 -1.5 29.4
13:25 1021 30.15 850 25.1 6.9 44.5 56 -1.3 29.6
13:30 1021 30.15 850 25.1 6.9 44.4 57 -1.1 30
13:35 1021 30.15 850 25.1 6.7 44 58 -1.1 30.1
13:40 1021 30.15 850 25.1 6.5 43.7 58 -1.2 29.9
13:45 1021 30.15 850 25.1 6.5 43.6 57 -1.5 29.3
13:50 1021 30.15 850 25.1 6.6 43.8 56 -1.5 29.2
13:55 1021 30.15 851 25.13 6.8 44.2 57 -1.2 29.8
14:00 1022 30.18 851 25.13 6.7 44.1 57 -1.2 29.9
14:05 1022 30.18 851 25.13 6.6 44 57 -1.2 29.8
14:10 1022 30.18 851 25.13 6.6 43.9 58 -1.1 30.1
14:15 1022 30.18 851 25.13 6.5 43.7 59 -1 30.2
14:20 1022 30.18 851 25.13 6.4 43.4 60 -0.8 30.5
14:25 1022 30.18 851 25.13 6.2 43.1 61 -0.8 30.5
14:30 1022 30.18 851 25.13 6.1 43 59 -1.2 29.8
14:35 1022 30.18 851 25.13 6.2 43.1 61 -0.9 30.5
14:40 1022 30.18 851 25.13 6 42.9 61 -0.8 30.5
14:45 1022 30.18 851 25.13 6 42.8 61 -0.9 30.3
14:50 1023 30.21 852 25.16 6.2 43.1 62 -0.5 31.2
14:55 1023 30.21 852 25.16 6 42.8 63 -0.6 31
15:00 1023 30.21 852 25.16 5.8 42.5 65 -0.2 31.6
15:05 1023 30.21 852 25.16 5.5 41.9 65 -0.5 31.1
15:10 1023 30.21 852 25.16 5.5 42 66 -0.4 31.4
15:15 1023 30.21 852 25.16 5.7 42.2 64 -0.5 31
15:20 1023 30.21 852 25.16 5.8 42.4 63 -0.8 30.6
15:25 1023 30.21 852 25.16 5.9 42.7 63 -0.4 31.2
15:30 1023 30.21 852 25.16 6 42.7 64 -0.4 31.3
15:35 1023 30.21 852 25.16 5.9 42.6 66 -0 31.9
15:40 1023 30.21 852 25.16 5.5 41.9 70 0.4 32.8
15:45 1023 30.21 852 25.16 5 40.9 79 1.6 34.9
15:50 1023 30.21 852 25.16 4.3 39.8 73 -0.1 31.8
15:55 1023 30.21 852 25.16 4.9 40.8 68 -0.5 31.1
16:00 1023 30.21 852 25.16 5.6 42.1 66 -0.2 31.7
16:05 1023 30.21 852 25.16 6 42.7 64 -0.2 31.6
16:10 1023 30.21 853 25.19 6.2 43.1 67 0.5 32.8
16:15 1023 30.21 853 25.19 5.9 42.7 68 0.5 32.9
16:20 1023 30.21 853 25.19 5.7 42.2 67 0 32
16:25 1023 30.21 853 25.19 6.1 43.1 68 0.7 33.2
16:30 1024 30.24 853 25.19 5.7 42.3 69 0.5 32.9
16:35 1023 30.21 853 25.19 5.7 42.2 70 0.6 33.1
16:40 1023 30.21 853 25.19 5.5 42 69 0.3 32.5
16:45 1023 30.21 853 25.19 5.5 41.9 74 1.3 34.3
16:50 1023 30.21 853 25.19 4.7 40.4 79 1.4 34.5
16:55 1023 30.21 853 25.19 4 39.2 79 0.8 33.4
17:00 1023 30.21 853 25.19 4.1 39.3 79 0.7 33.2
17:05 1023 30.21 853 25.19 4.3 39.7 76 0.5 32.9
17:10 1023 30.21 853 25.19 4.4 39.9 79 1 33.8
17:15 1023 30.21 852 25.16 4.1 39.4 79 0.8 33.4
17:20 1023 30.21 852 25.16 4.1 39.4 78 0.5 33
17:25 1023 30.21 852 25.16 4.5 40 75 0.4 32.8
17:30 1023 30.21 852 25.16 4.7 40.5 75 0.7 33.3
17:35 1023 30.21 852 25.16 4.8 40.7 76 0.9 33.6
17:40 1023 30.21 852 25.16 4.8 40.6 77 1 33.8
17:45 1023 30.21 852 25.16 4.6 40.3 77 0.9 33.6
17:50 1023 30.21 852 25.16 4.7 40.5 76 0.9 33.6
17:55 1023 30.21 852 25.16 4.8 40.6 76 0.9 33.5
18:00 1023 30.21 852 25.16 5.1 41.1 75 0.9 33.7
18:05 1023 30.21 852 25.16 5.3 41.5 74 1 33.9
18:10 1023 30.21 852 25.16 5.2 41.4 77 1.5 34.6
18:15 1023 30.21 852 25.16 5 40.9 79 1.6 34.9
18:20 1023 30.21 852 25.16 4.7 40.5 81 1.8 35.2
18:25 1023 30.21 852 25.16 4.6 40.3 80 1.5 34.6
18:30 1023 30.21 852 25.16 4.5 40.2 82 1.8 35.2
18:35 1023 30.21 852 25.16 4.2 39.5 86 2 35.5
18:40 1022 30.18 852 25.16 3.9 39 87 1.8 35.3
18:45 1022 30.18 851 25.13 3.8 38.9 88 2 35.5
18:50 1021 30.15 850 25.1 3.8 38.8 87 1.8 35.2
18:55 1021 30.15 850 25.1 4 39.2 84 1.6 34.8
19:00 1021 30.15 851 25.13 4.4 39.8 82 1.5 34.8
19:05 1022 30.18 851 25.13 4.6 40.4 83 2.1 35.7
19:10 1022 30.18 851 25.13 4.1 39.4 86 1.9 35.5
19:15 1022 30.18 851 25.13 3.9 39.1 85 1.7 35
19:20 1022 30.18 851 25.13 4.1 39.5 83 1.5 34.6
19:25 1022 30.18 851 25.13 4.7 40.4 79 1.3 34.4
19:30 1021 30.15 851 25.13 5.2 41.4 75 1.2 34.1
19:35 1022 30.18 851 25.13 5.9 42.6 72 1.2 34.1
19:40 1022 30.18 851 25.13 6.9 44.4 65 0.7 33.2
19:45 1022 30.18 851 25.13 7.8 46 65 1.6 34.8
19:50 1022 30.18 851 25.13 7.5 45.5 68 2.1 35.8
19:55 1022 30.18 851 25.13 6.4 43.4 75 2.2 36
20:00 1022 30.18 852 25.16 5.6 42.1 76 1.7 35
20:05 1022 30.18 852 25.16 5.8 42.4 72 1.2 34.1
20:10 1022 30.18 852 25.16 6.4 43.4 70 1.3 34.3
20:15 1023 30.21 852 25.16 6.5 43.8 71 1.6 35
20:20 1023 30.21 852 25.16 6.3 43.3 72 1.7 35
20:25 1023 30.21 852 25.16 5.9 42.6 74 1.6 34.8
20:30 1023 30.21 852 25.16 5.5 42 76 1.7 35.1
20:35 1023 30.21 852 25.16 5.2 41.3 77 1.5 34.7
20:40 1023 30.21 852 25.16 5 41 78 1.5 34.7
20:45 1023 30.21 852 25.16 4.9 40.8 80 1.7 35.1
20:50 1023 30.21 852 25.16 4.8 40.7 78 1.3 34.3
20:55 1023 30.21 852 25.16 5.1 41.2 79 1.7 35.1
21:00 1023 30.21 852 25.16 5 41 79 1.7 35.1
21:05 1023 30.21 852 25.16 5 40.9 80 1.8 35.2
21:10 1023 30.21 852 25.16 5 41 82 2.2 35.9
21:15 1023 30.21 852 25.16 4.9 40.9 82 2 35.7
21:20 1023 30.21 852 25.16 4.9 40.8 82 2.1 35.8
21:25 1023 30.21 852 25.16 4.8 40.6 84 2.3 36.1
21:30 1023 30.21 852 25.16 4.7 40.4 84 2.1 35.8
21:35 1023 30.21 852 25.16 4.5 40.1 84 2.1 35.7
21:40 1023 30.21 852 25.16 4.3 39.8 88 2.5 36.5
21:45 1023 30.21 852 25.16 3.8 38.9 90 2.3 36.2
21:50 1023 30.21 852 25.16 3.8 38.8 90 2.2 36
21:55 1023 30.21 852 25.16 4 39.2 89 2.4 36.3
22:00 1023 30.21 852 25.16 4.2 39.5 88 2.4 36.4
22:05 1023 30.21 852 25.16 4.3 39.7 88 2.4 36.4
22:10 1023 30.21 852 25.16 4.4 39.8 88 2.6 36.7
22:15 1023 30.21 852 25.16 4.2 39.5 90 2.6 36.7
22:20 1023 30.21 852 25.16 3.9 39 91 2.5 36.5
22:25 1023 30.21 852 25.16 3.6 38.4 93 2.5 36.5
22:30 1023 30.21 852 25.16 3.5 38.3 94 2.6 36.6
22:35 1023 30.21 852 25.16 3.6 38.4 93 2.6 36.7
22:40 1023 30.21 852 25.16 3.8 38.8 93 2.7 36.8
22:45 1023 30.21 852 25.16 3.8 38.9 93 2.7 36.9
22:50 1023 30.21 852 25.16 3.9 39 92 2.8 37
22:55 1023 30.21 852 25.16 3.9 39.1 92 2.8 37
23:00 1023 30.21 852 25.16 3.9 39 92 2.7 36.9
23:05 1023 30.21 852 25.16 3.9 39.1 92 2.7 36.9
23:10 1023 30.21 852 25.16 4 39.1 91 2.7 36.8
23:15 1023 30.21 852 25.16 4.3 39.8 90 2.9 37.2
23:20 1023 30.21 852 25.16 4.5 40.1 90 3 37.5
23:25 1023 30.21 852 25.16 4.5 40.1 90 3 37.3
23:30 1023 30.21 852 25.16 4.5 40.2 89 2.9 37.2
23:35 1023 30.21 852 25.16 4.5 40 89 2.9 37.2
23:40 1023 30.21 852 25.16 4.4 39.8 90 2.9 37.2
23:45 1023 30.21 852 25.16 4.2 39.6 90 2.8 37
23:50 1023 30.21 852 25.16 4.3 39.7 89 2.6 36.7
23:55 1023 30.21 852 25.16 4.3 39.7 88 2.5 36.6
24:00 1023 30.21 852 25.16 4.2 39.5 89 2.5 36.4